Pagrindinis puslapis
METAR-TAF:

METAR-TAF

Oro uostai :

Asuanas, Egiptas

platuma: 23-58N, ilguma: 032-47E, Aukštis: 200 m

Dabartinis oras

Ataskaita buvo paskelbta 59 minutes, ne 06:00 UTC
Ramus vėjas
Temperatūra 35°C
Drėgmė 13%
Slėgis 1010 hPa
Matomumas 10 km arba daugiau
nėra debesų žemiau 1500 m ir nėra kamuolinių lietaus debesų

METAR: HESN 240600Z 00000KT CAVOK 35/02 Q1010 NOSIG

Laikas: 08:59 (06:59 UTC)

Prognozė

Ataskaita buvo paskelbta 1 valandą ir 59 minutes, ne 05:00 UTC
Prognozė galioja nuo 24 metu 06 UTC su 25 metu 12 UTC
Vėjas 6 kt iš Šiaurės
Matomumas 10 km arba daugiau
nėra debesų žemiau 1500 m ir nėra kamuolinių lietaus debesų

TAF: HESN 240500Z 2406/2512 36006KT CAVOK

Orai ataskaitas ir orų prognozės (METAR, TAF).

turimą stotys yra geltonos ir raudonos taškus žemėlapyje.

Perkelti pele per norėdami pamatyti stoties vardą.

Tada spustelėkite, norėdami matyti oro stebėjimo ir prognozės.

Norėdami pakeisti žemėlapį: spustelėkite ant žalios mygtukų su juodo kryžiaus žemyn,; žalią mygtuką su brūkšneliu, jei norite nutolinti; arba žalių rodyklių gretimoms žemėlapius.


METAR-TAF: